sensor_id;sensor_type;location;lat;lon;timestamp;temperature;humidity
1778;DHT22;886;50.082;8.222;2022-12-24T00:01:30;11.90;99.90
1778;DHT22;886;50.082;8.222;2022-12-24T00:04:07;11.90;99.90
1778;DHT22;886;50.082;8.222;2022-12-24T00:06:36;11.90;99.90
1778;DHT22;886;50.082;8.222;2022-12-24T00:09:08;11.80;99.90
1778;DHT22;886;50.082;8.222;2022-12-24T00:11:35;11.90;99.90
1778;DHT22;886;50.082;8.222;2022-12-24T00:14:08;11.80;99.90
1778;DHT22;886;50.082;8.222;2022-12-24T00:16:35;11.80;99.90
1778;DHT22;886;50.082;8.222;2022-12-24T00:19:03;11.70;99.90
1778;DHT22;886;50.082;8.222;2022-12-24T00:21:30;11.70;99.90
1778;DHT22;886;50.082;8.222;2022-12-24T00:23:59;11.70;99.90
1778;DHT22;886;50.082;8.222;2022-12-24T00:26:30;11.70;99.90
1778;DHT22;886;50.082;8.222;2022-12-24T00:28:58;11.70;99.90
1778;DHT22;886;50.082;8.222;2022-12-24T00:31:25;11.80;99.90
1778;DHT22;886;50.082;8.222;2022-12-24T00:33:53;11.80;99.90
1778;DHT22;886;50.082;8.222;2022-12-24T00:36:20;11.70;99.90
1778;DHT22;886;50.082;8.222;2022-12-24T00:38:50;11.70;99.90
1778;DHT22;886;50.082;8.222;2022-12-24T00:41:17;11.80;99.90
1778;DHT22;886;50.082;8.222;2022-12-24T00:43:54;11.80;99.90
1778;DHT22;886;50.082;8.222;2022-12-24T00:46:22;11.80;99.90
1778;DHT22;886;50.082;8.222;2022-12-24T00:48:49;11.80;99.90
1778;DHT22;886;50.082;8.222;2022-12-24T00:51:17;11.80;99.90
1778;DHT22;886;50.082;8.222;2022-12-24T00:53:48;11.70;99.90
1778;DHT22;886;50.082;8.222;2022-12-24T00:56:16;11.70;99.90
1778;DHT22;886;50.082;8.222;2022-12-24T00:58:57;11.80;99.90
1778;DHT22;886;50.082;8.222;2022-12-24T01:01:27;11.70;99.90
1778;DHT22;886;50.082;8.222;2022-12-24T01:03:55;11.80;99.90
1778;DHT22;886;50.082;8.222;2022-12-24T01:06:42;11.80;99.90
1778;DHT22;886;50.082;8.222;2022-12-24T01:09:10;11.80;99.90
1778;DHT22;886;50.082;8.222;2022-12-24T01:11:38;11.80;99.90
1778;DHT22;886;50.082;8.222;2022-12-24T01:14:06;11.70;99.90
1778;DHT22;886;50.082;8.222;2022-12-24T01:16:33;11.70;99.90
1778;DHT22;886;50.082;8.222;2022-12-24T01:19:05;11.70;99.90
1778;DHT22;886;50.082;8.222;2022-12-24T01:21:33;11.70;99.90
1778;DHT22;886;50.082;8.222;2022-12-24T01:24:00;11.70;99.90
1778;DHT22;886;50.082;8.222;2022-12-24T01:26:29;11.70;99.90
1778;DHT22;886;50.082;8.222;2022-12-24T01:28:57;11.70;99.90
1778;DHT22;886;50.082;8.222;2022-12-24T01:31:26;11.70;99.90
1778;DHT22;886;50.082;8.222;2022-12-24T01:33:59;11.70;99.90
1778;DHT22;886;50.082;8.222;2022-12-24T01:36:27;11.70;99.90
1778;DHT22;886;50.082;8.222;2022-12-24T01:38:57;11.70;99.90
1778;DHT22;886;50.082;8.222;2022-12-24T01:41:24;11.70;99.90
1778;DHT22;886;50.082;8.222;2022-12-24T01:44:18;11.60;99.90
1778;DHT22;886;50.082;8.222;2022-12-24T01:46:52;11.60;99.90
1778;DHT22;886;50.082;8.222;2022-12-24T01:49:22;11.60;99.90
1778;DHT22;886;50.082;8.222;2022-12-24T01:51:53;11.60;99.90
1778;DHT22;886;50.082;8.222;2022-12-24T01:54:25;11.60;99.90
1778;DHT22;886;50.082;8.222;2022-12-24T01:57:08;11.60;99.90
1778;DHT22;886;50.082;8.222;2022-12-24T01:59:38;11.60;99.90
1778;DHT22;886;50.082;8.222;2022-12-24T02:02:12;11.60;99.90
1778;DHT22;886;50.082;8.222;2022-12-24T02:04:43;11.60;99.90
1778;DHT22;886;50.082;8.222;2022-12-24T02:07:16;11.60;99.90
1778;DHT22;886;50.082;8.222;2022-12-24T02:09:44;11.50;99.90
1778;DHT22;886;50.082;8.222;2022-12-24T02:12:11;11.50;99.90
1778;DHT22;886;50.082;8.222;2022-12-24T02:14:41;11.50;99.90
1778;DHT22;886;50.082;8.222;2022-12-24T02:17:19;11.50;99.90
1778;DHT22;886;50.082;8.222;2022-12-24T02:23:49;11.40;99.90
1778;DHT22;886;50.082;8.222;2022-12-24T02:26:57;11.40;99.90
1778;DHT22;886;50.082;8.222;2022-12-24T02:30:02;11.40;99.90
1778;DHT22;886;50.082;8.222;2022-12-24T02:32:51;11.40;99.90
1778;DHT22;886;50.082;8.222;2022-12-24T02:35:45;11.40;99.90
1778;DHT22;886;50.082;8.222;2022-12-24T02:38:18;11.40;99.90
1778;DHT22;886;50.082;8.222;2022-12-24T02:40:55;11.40;99.90
1778;DHT22;886;50.082;8.222;2022-12-24T02:43:28;11.30;99.90
1778;DHT22;886;50.082;8.222;2022-12-24T02:46:05;11.30;99.90
1778;DHT22;886;50.082;8.222;2022-12-24T02:48:36;11.30;99.90
1778;DHT22;886;50.082;8.222;2022-12-24T02:51:10;11.30;99.90
1778;DHT22;886;50.082;8.222;2022-12-24T02:53:41;11.30;99.90
1778;DHT22;886;50.082;8.222;2022-12-24T02:56:38;11.30;99.90
1778;DHT22;886;50.082;8.222;2022-12-24T02:59:45;11.30;99.90
1778;DHT22;886;50.082;8.222;2022-12-24T03:02:44;11.30;99.90
1778;DHT22;886;50.082;8.222;2022-12-24T03:05:24;11.30;99.90
1778;DHT22;886;50.082;8.222;2022-12-24T03:07:59;11.30;99.90
1778;DHT22;886;50.082;8.222;2022-12-24T03:10:38;11.30;99.90
1778;DHT22;886;50.082;8.222;2022-12-24T03:13:16;11.20;99.90
1778;DHT22;886;50.082;8.222;2022-12-24T03:15:55;11.20;99.90
1778;DHT22;886;50.082;8.222;2022-12-24T03:18:25;11.20;99.90
1778;DHT22;886;50.082;8.222;2022-12-24T03:20:57;11.20;99.90
1778;DHT22;886;50.082;8.222;2022-12-24T03:23:29;11.30;99.90
1778;DHT22;886;50.082;8.222;2022-12-24T03:26:01;11.20;99.90
1778;DHT22;886;50.082;8.222;2022-12-24T03:28:41;11.30;99.90
1778;DHT22;886;50.082;8.222;2022-12-24T03:31:10;11.30;99.90
1778;DHT22;886;50.082;8.222;2022-12-24T03:33:39;11.30;99.90
1778;DHT22;886;50.082;8.222;2022-12-24T03:36:10;11.30;99.90
1778;DHT22;886;50.082;8.222;2022-12-24T03:38:44;11.30;99.90
1778;DHT22;886;50.082;8.222;2022-12-24T03:41:23;11.30;99.90
1778;DHT22;886;50.082;8.222;2022-12-24T03:43:51;11.30;99.90
1778;DHT22;886;50.082;8.222;2022-12-24T03:46:18;11.30;99.90
1778;DHT22;886;50.082;8.222;2022-12-24T03:48:52;11.20;99.90
1778;DHT22;886;50.082;8.222;2022-12-24T03:51:21;11.30;99.90
1778;DHT22;886;50.082;8.222;2022-12-24T03:53:51;11.30;99.90
1778;DHT22;886;50.082;8.222;2022-12-24T03:56:18;11.30;99.90
1778;DHT22;886;50.082;8.222;2022-12-24T03:58:49;11.30;99.90
1778;DHT22;886;50.082;8.222;2022-12-24T04:01:17;11.30;99.90
1778;DHT22;886;50.082;8.222;2022-12-24T04:03:44;11.30;99.90
1778;DHT22;886;50.082;8.222;2022-12-24T04:06:16;11.30;99.90
1778;DHT22;886;50.082;8.222;2022-12-24T04:08:43;11.20;99.90
1778;DHT22;886;50.082;8.222;2022-12-24T04:11:13;11.20;99.90
1778;DHT22;886;50.082;8.222;2022-12-24T04:13:40;11.20;99.90
1778;DHT22;886;50.082;8.222;2022-12-24T04:16:13;11.30;99.90
1778;DHT22;886;50.082;8.222;2022-12-24T04:18:48;11.20;99.90
1778;DHT22;886;50.082;8.222;2022-12-24T04:21:18;11.20;99.90
1778;DHT22;886;50.082;8.222;2022-12-24T04:23:46;11.20;99.90
1778;DHT22;886;50.082;8.222;2022-12-24T04:26:16;11.10;99.90
1778;DHT22;886;50.082;8.222;2022-12-24T04:28:43;11.10;99.90
1778;DHT22;886;50.082;8.222;2022-12-24T04:31:12;11.20;99.90
1778;DHT22;886;50.082;8.222;2022-12-24T04:33:40;11.10;99.90
1778;DHT22;886;50.082;8.222;2022-12-24T04:36:11;11.10;99.90
1778;DHT22;886;50.082;8.222;2022-12-24T04:38:44;11.20;99.90
1778;DHT22;886;50.082;8.222;2022-12-24T04:41:16;11.20;99.90
1778;DHT22;886;50.082;8.222;2022-12-24T04:43:54;11.20;99.90
1778;DHT22;886;50.082;8.222;2022-12-24T04:46:24;11.10;99.90
1778;DHT22;886;50.082;8.222;2022-12-24T04:48:57;11.10;99.90
1778;DHT22;886;50.082;8.222;2022-12-24T04:51:26;11.10;99.90
1778;DHT22;886;50.082;8.222;2022-12-24T04:53:55;11.10;99.90
1778;DHT22;886;50.082;8.222;2022-12-24T04:56:24;11.10;99.90
1778;DHT22;886;50.082;8.222;2022-12-24T04:58:54;11.00;99.90
1778;DHT22;886;50.082;8.222;2022-12-24T05:01:25;11.00;99.90
1778;DHT22;886;50.082;8.222;2022-12-24T05:03:56;11.00;99.90
1778;DHT22;886;50.082;8.222;2022-12-24T05:06:27;11.00;99.90
1778;DHT22;886;50.082;8.222;2022-12-24T05:08:57;11.00;99.90
1778;DHT22;886;50.082;8.222;2022-12-24T05:11:31;10.90;99.90
1778;DHT22;886;50.082;8.222;2022-12-24T05:14:01;10.70;99.90
1778;DHT22;886;50.082;8.222;2022-12-24T05:16:32;10.60;99.90
1778;DHT22;886;50.082;8.222;2022-12-24T05:19:03;10.70;99.90
1778;DHT22;886;50.082;8.222;2022-12-24T05:21:34;10.80;99.90
1778;DHT22;886;50.082;8.222;2022-12-24T05:24:03;10.70;99.90
1778;DHT22;886;50.082;8.222;2022-12-24T05:26:53;10.70;99.90
1778;DHT22;886;50.082;8.222;2022-12-24T05:29:21;10.80;99.90
1778;DHT22;886;50.082;8.222;2022-12-24T05:31:49;10.80;99.90
1778;DHT22;886;50.082;8.222;2022-12-24T05:34:16;10.70;99.90
1778;DHT22;886;50.082;8.222;2022-12-24T05:36:46;10.70;99.90
1778;DHT22;886;50.082;8.222;2022-12-24T05:39:18;10.70;99.90
1778;DHT22;886;50.082;8.222;2022-12-24T05:41:46;10.70;99.90
1778;DHT22;886;50.082;8.222;2022-12-24T05:44:14;10.70;99.90
1778;DHT22;886;50.082;8.222;2022-12-24T05:46:45;10.80;99.90
1778;DHT22;886;50.082;8.222;2022-12-24T05:49:12;10.90;99.90
1778;DHT22;886;50.082;8.222;2022-12-24T05:51:40;10.90;99.90
1778;DHT22;886;50.082;8.222;2022-12-24T05:54:08;10.90;99.90
1778;DHT22;886;50.082;8.222;2022-12-24T05:56:37;10.80;99.90
1778;DHT22;886;50.082;8.222;2022-12-24T05:59:07;10.70;99.90
1778;DHT22;886;50.082;8.222;2022-12-24T06:01:34;10.60;99.90
1778;DHT22;886;50.082;8.222;2022-12-24T06:04:02;10.60;99.90
1778;DHT22;886;50.082;8.222;2022-12-24T06:06:32;10.60;99.90
1778;DHT22;886;50.082;8.222;2022-12-24T06:09:06;10.70;99.90
1778;DHT22;886;50.082;8.222;2022-12-24T06:11:33;10.60;99.90
1778;DHT22;886;50.082;8.222;2022-12-24T06:14:02;10.50;99.90
1778;DHT22;886;50.082;8.222;2022-12-24T06:16:32;10.50;99.90
1778;DHT22;886;50.082;8.222;2022-12-24T06:19:00;10.60;99.90
1778;DHT22;886;50.082;8.222;2022-12-24T06:21:27;10.60;99.90
1778;DHT22;886;50.082;8.222;2022-12-24T06:24:00;10.60;99.90
1778;DHT22;886;50.082;8.222;2022-12-24T06:26:27;10.70;99.90
1778;DHT22;886;50.082;8.222;2022-12-24T06:28:57;10.60;99.90
1778;DHT22;886;50.082;8.222;2022-12-24T06:31:28;10.60;99.90
1778;DHT22;886;50.082;8.222;2022-12-24T06:33:55;10.70;99.90
1778;DHT22;886;50.082;8.222;2022-12-24T06:36:37;10.70;99.90
1778;DHT22;886;50.082;8.222;2022-12-24T06:39:08;10.80;99.90
1778;DHT22;886;50.082;8.222;2022-12-24T06:41:35;10.90;99.90
1778;DHT22;886;50.082;8.222;2022-12-24T06:44:02;10.90;99.90
1778;DHT22;886;50.082;8.222;2022-12-24T06:46:31;10.90;99.90
1778;DHT22;886;50.082;8.222;2022-12-24T06:49:01;11.00;99.90
1778;DHT22;886;50.082;8.222;2022-12-24T06:51:28;11.00;99.90
1778;DHT22;886;50.082;8.222;2022-12-24T06:53:55;11.00;99.90
1778;DHT22;886;50.082;8.222;2022-12-24T06:56:23;11.00;99.90
1778;DHT22;886;50.082;8.222;2022-12-24T06:58:50;10.90;99.90
1778;DHT22;886;50.082;8.222;2022-12-24T07:01:18;10.90;99.90
1778;DHT22;886;50.082;8.222;2022-12-24T07:03:48;11.00;99.90
1778;DHT22;886;50.082;8.222;2022-12-24T07:06:19;10.90;99.90
1778;DHT22;886;50.082;8.222;2022-12-24T07:08:47;11.00;99.90
1778;DHT22;886;50.082;8.222;2022-12-24T07:11:15;11.00;99.90
1778;DHT22;886;50.082;8.222;2022-12-24T07:13:45;11.10;99.90
1778;DHT22;886;50.082;8.222;2022-12-24T07:16:16;11.10;99.90
1778;DHT22;886;50.082;8.222;2022-12-24T07:18:44;11.10;99.90
1778;DHT22;886;50.082;8.222;2022-12-24T07:21:12;11.10;99.90
1778;DHT22;886;50.082;8.222;2022-12-24T07:23:40;11.10;99.90
1778;DHT22;886;50.082;8.222;2022-12-24T07:26:10;11.20;99.90
1778;DHT22;886;50.082;8.222;2022-12-24T07:28:38;11.20;99.90
1778;DHT22;886;50.082;8.222;2022-12-24T07:31:06;11.20;99.90
1778;DHT22;886;50.082;8.222;2022-12-24T07:33:33;11.20;99.90
1778;DHT22;886;50.082;8.222;2022-12-24T07:36:02;11.30;99.90
1778;DHT22;886;50.082;8.222;2022-12-24T07:38:32;11.30;99.90
1778;DHT22;886;50.082;8.222;2022-12-24T07:41:00;11.30;99.90
1778;DHT22;886;50.082;8.222;2022-12-24T07:43:28;11.20;99.90
1778;DHT22;886;50.082;8.222;2022-12-24T07:45:56;11.30;99.90
1778;DHT22;886;50.082;8.222;2022-12-24T07:48:24;11.30;99.90
1778;DHT22;886;50.082;8.222;2022-12-24T07:50:52;11.30;99.90
1778;DHT22;886;50.082;8.222;2022-12-24T07:53:19;11.30;99.90
1778;DHT22;886;50.082;8.222;2022-12-24T07:55:47;11.30;99.90
1778;DHT22;886;50.082;8.222;2022-12-24T07:58:14;11.30;99.90
1778;DHT22;886;50.082;8.222;2022-12-24T08:00:42;11.30;99.90
1778;DHT22;886;50.082;8.222;2022-12-24T08:03:15;11.30;99.90
1778;DHT22;886;50.082;8.222;2022-12-24T08:05:43;11.30;99.90
1778;DHT22;886;50.082;8.222;2022-12-24T08:08:11;11.30;99.90
1778;DHT22;886;50.082;8.222;2022-12-24T08:10:38;11.30;99.90
1778;DHT22;886;50.082;8.222;2022-12-24T08:13:07;11.30;99.90
1778;DHT22;886;50.082;8.222;2022-12-24T08:15:43;11.30;99.90
1778;DHT22;886;50.082;8.222;2022-12-24T08:18:16;11.30;99.90
1778;DHT22;886;50.082;8.222;2022-12-24T08:20:46;11.30;99.90
1778;DHT22;886;50.082;8.222;2022-12-24T08:23:15;11.30;99.90
1778;DHT22;886;50.082;8.222;2022-12-24T08:25:44;11.20;99.90
1778;DHT22;886;50.082;8.222;2022-12-24T08:28:16;11.20;99.90
1778;DHT22;886;50.082;8.222;2022-12-24T08:30:46;11.20;99.90
1778;DHT22;886;50.082;8.222;2022-12-24T08:33:16;11.10;99.90
1778;DHT22;886;50.082;8.222;2022-12-24T08:35:46;11.10;99.90
1778;DHT22;886;50.082;8.222;2022-12-24T08:38:14;11.00;99.90
1778;DHT22;886;50.082;8.222;2022-12-24T08:40:42;10.90;99.90
1778;DHT22;886;50.082;8.222;2022-12-24T08:43:09;10.90;99.90
1778;DHT22;886;50.082;8.222;2022-12-24T08:45:45;10.90;99.90
1778;DHT22;886;50.082;8.222;2022-12-24T08:48:12;10.90;99.90
1778;DHT22;886;50.082;8.222;2022-12-24T08:50:40;10.90;99.90
1778;DHT22;886;50.082;8.222;2022-12-24T08:53:09;11.00;99.90
1778;DHT22;886;50.082;8.222;2022-12-24T08:55:36;11.00;99.90
1778;DHT22;886;50.082;8.222;2022-12-24T08:58:04;11.00;99.90
1778;DHT22;886;50.082;8.222;2022-12-24T09:00:32;11.10;99.90
1778;DHT22;886;50.082;8.222;2022-12-24T09:03:01;11.00;99.90
1778;DHT22;886;50.082;8.222;2022-12-24T09:05:28;11.10;99.90
1778;DHT22;886;50.082;8.222;2022-12-24T09:07:57;11.10;99.90
1778;DHT22;886;50.082;8.222;2022-12-24T09:10:25;11.10;99.90
1778;DHT22;886;50.082;8.222;2022-12-24T09:12:53;11.10;99.90
1778;DHT22;886;50.082;8.222;2022-12-24T09:15:20;11.10;99.90
1778;DHT22;886;50.082;8.222;2022-12-24T09:17:47;11.20;99.90
1778;DHT22;886;50.082;8.222;2022-12-24T09:20:16;11.10;99.90
1778;DHT22;886;50.082;8.222;2022-12-24T09:22:43;11.10;99.90
1778;DHT22;886;50.082;8.222;2022-12-24T09:25:10;11.10;99.90
1778;DHT22;886;50.082;8.222;2022-12-24T09:27:38;11.10;99.90
1778;DHT22;886;50.082;8.222;2022-12-24T09:30:06;11.10;99.90
1778;DHT22;886;50.082;8.222;2022-12-24T09:32:34;11.00;99.90
1778;DHT22;886;50.082;8.222;2022-12-24T09:35:01;11.10;99.90
1778;DHT22;886;50.082;8.222;2022-12-24T09:37:31;11.10;99.90
1778;DHT22;886;50.082;8.222;2022-12-24T09:39:58;11.10;99.90
1778;DHT22;886;50.082;8.222;2022-12-24T09:42:33;11.10;99.90
1778;DHT22;886;50.082;8.222;2022-12-24T09:45:15;11.20;99.90
1778;DHT22;886;50.082;8.222;2022-12-24T09:47:47;11.20;99.90
1778;DHT22;886;50.082;8.222;2022-12-24T09:50:45;11.20;99.90
1778;DHT22;886;50.082;8.222;2022-12-24T09:53:21;11.30;99.90
1778;DHT22;886;50.082;8.222;2022-12-24T09:55:54;11.40;99.90
1778;DHT22;886;50.082;8.222;2022-12-24T09:58:34;11.40;99.90
1778;DHT22;886;50.082;8.222;2022-12-24T10:01:13;11.50;99.90
1778;DHT22;886;50.082;8.222;2022-12-24T10:03:45;11.50;99.90
1778;DHT22;886;50.082;8.222;2022-12-24T10:06:18;11.50;99.90
1778;DHT22;886;50.082;8.222;2022-12-24T10:09:10;11.50;99.90
1778;DHT22;886;50.082;8.222;2022-12-24T10:11:55;11.60;99.90
1778;DHT22;886;50.082;8.222;2022-12-24T10:14:50;11.70;99.90
1778;DHT22;886;50.082;8.222;2022-12-24T10:17:38;11.70;99.90
1778;DHT22;886;50.082;8.222;2022-12-24T10:20:29;11.70;99.90
1778;DHT22;886;50.082;8.222;2022-12-24T10:23:10;11.80;99.90
1778;DHT22;886;50.082;8.222;2022-12-24T10:26:04;11.90;99.90
1778;DHT22;886;50.082;8.222;2022-12-24T10:28:45;11.90;99.90
1778;DHT22;886;50.082;8.222;2022-12-24T10:31:14;11.90;99.90
1778;DHT22;886;50.082;8.222;2022-12-24T10:33:56;12.00;99.90
1778;DHT22;886;50.082;8.222;2022-12-24T10:36:39;12.00;99.90
1778;DHT22;886;50.082;8.222;2022-12-24T10:39:14;12.00;99.90
1778;DHT22;886;50.082;8.222;2022-12-24T10:41:49;12.10;99.90
1778;DHT22;886;50.082;8.222;2022-12-24T10:44:23;12.20;99.90
1778;DHT22;886;50.082;8.222;2022-12-24T10:47:02;12.20;99.90
1778;DHT22;886;50.082;8.222;2022-12-24T10:49:44;12.30;99.90
1778;DHT22;886;50.082;8.222;2022-12-24T10:52:14;12.30;99.90
1778;DHT22;886;50.082;8.222;2022-12-24T10:55:06;12.40;99.90
1778;DHT22;886;50.082;8.222;2022-12-24T10:57:41;12.40;99.90
1778;DHT22;886;50.082;8.222;2022-12-24T11:00:19;12.40;99.90
1778;DHT22;886;50.082;8.222;2022-12-24T11:02:47;12.40;99.90
1778;DHT22;886;50.082;8.222;2022-12-24T11:05:29;12.30;99.90
1778;DHT22;886;50.082;8.222;2022-12-24T11:08:01;12.30;99.90
1778;DHT22;886;50.082;8.222;2022-12-24T11:10:30;12.30;99.90
1778;DHT22;886;50.082;8.222;2022-12-24T11:12:58;12.30;99.90
1778;DHT22;886;50.082;8.222;2022-12-24T11:15:51;12.30;99.90
1778;DHT22;886;50.082;8.222;2022-12-24T11:18:31;12.30;99.90
1778;DHT22;886;50.082;8.222;2022-12-24T11:21:00;12.30;99.90
1778;DHT22;886;50.082;8.222;2022-12-24T11:23:27;12.30;99.90
1778;DHT22;886;50.082;8.222;2022-12-24T11:25:56;12.40;99.90
1778;DHT22;886;50.082;8.222;2022-12-24T11:28:29;12.30;99.90
1778;DHT22;886;50.082;8.222;2022-12-24T11:31:04;12.30;99.90
1778;DHT22;886;50.082;8.222;2022-12-24T11:33:46;12.30;99.90
1778;DHT22;886;50.082;8.222;2022-12-24T11:36:23;12.30;99.90
1778;DHT22;886;50.082;8.222;2022-12-24T11:38:53;12.40;99.90
1778;DHT22;886;50.082;8.222;2022-12-24T11:41:22;12.40;99.90
1778;DHT22;886;50.082;8.222;2022-12-24T11:44:02;12.50;99.90
1778;DHT22;886;50.082;8.222;2022-12-24T11:46:37;12.50;99.90
1778;DHT22;886;50.082;8.222;2022-12-24T11:49:15;12.50;99.90
1778;DHT22;886;50.082;8.222;2022-12-24T11:52:19;12.50;99.90
1778;DHT22;886;50.082;8.222;2022-12-24T11:57:55;12.50;99.90
1778;DHT22;886;50.082;8.222;2022-12-24T12:00:26;12.50;99.90
1778;DHT22;886;50.082;8.222;2022-12-24T12:03:00;12.50;99.90
1778;DHT22;886;50.082;8.222;2022-12-24T12:05:32;12.60;99.90
1778;DHT22;886;50.082;8.222;2022-12-24T12:08:16;12.60;99.90
1778;DHT22;886;50.082;8.222;2022-12-24T12:10:51;12.60;99.90
1778;DHT22;886;50.082;8.222;2022-12-24T12:13:22;12.60;99.90
1778;DHT22;886;50.082;8.222;2022-12-24T12:16:05;12.50;99.90
1778;DHT22;886;50.082;8.222;2022-12-24T12:18:41;12.60;99.90
1778;DHT22;886;50.082;8.222;2022-12-24T12:21:17;12.60;99.90
1778;DHT22;886;50.082;8.222;2022-12-24T12:23:49;12.60;99.90
1778;DHT22;886;50.082;8.222;2022-12-24T12:26:22;12.60;99.90
1778;DHT22;886;50.082;8.222;2022-12-24T12:28:54;12.60;99.90
1778;DHT22;886;50.082;8.222;2022-12-24T12:31:31;12.60;99.90
1778;DHT22;886;50.082;8.222;2022-12-24T12:34:03;12.60;99.90
1778;DHT22;886;50.082;8.222;2022-12-24T12:36:36;12.50;99.90
1778;DHT22;886;50.082;8.222;2022-12-24T12:39:08;12.40;99.90
1778;DHT22;886;50.082;8.222;2022-12-24T12:41:46;12.40;99.90
1778;DHT22;886;50.082;8.222;2022-12-24T12:44:39;12.40;99.90
1778;DHT22;886;50.082;8.222;2022-12-24T12:47:28;12.40;99.90
1778;DHT22;886;50.082;8.222;2022-12-24T12:50:11;12.40;99.90
1778;DHT22;886;50.082;8.222;2022-12-24T12:52:50;12.40;99.90
1778;DHT22;886;50.082;8.222;2022-12-24T12:55:34;12.40;99.90
1778;DHT22;886;50.082;8.222;2022-12-24T12:58:11;12.30;99.90
1778;DHT22;886;50.082;8.222;2022-12-24T13:00:42;12.30;99.90
1778;DHT22;886;50.082;8.222;2022-12-24T13:03:45;12.30;99.90
1778;DHT22;886;50.082;8.222;2022-12-24T13:15:42;12.20;99.90
1778;DHT22;886;50.082;8.222;2022-12-24T13:18:49;12.30;99.90
1778;DHT22;886;50.082;8.222;2022-12-24T13:21:26;12.30;99.90
1778;DHT22;886;50.082;8.222;2022-12-24T13:24:04;12.40;99.90
1778;DHT22;886;50.082;8.222;2022-12-24T13:26:33;12.40;99.90
1778;DHT22;886;50.082;8.222;2022-12-24T13:29:30;12.50;99.90
1778;DHT22;886;50.082;8.222;2022-12-24T13:35:30;12.60;99.90
1778;DHT22;886;50.082;8.222;2022-12-24T13:38:29;12.60;99.90
1778;DHT22;886;50.082;8.222;2022-12-24T13:44:29;12.50;99.90
1778;DHT22;886;50.082;8.222;2022-12-24T13:47:17;12.50;99.90
1778;DHT22;886;50.082;8.222;2022-12-24T13:50:12;12.40;99.90
1778;DHT22;886;50.082;8.222;2022-12-24T13:52:51;12.30;99.90
1778;DHT22;886;50.082;8.222;2022-12-24T13:55:19;12.30;99.90
1778;DHT22;886;50.082;8.222;2022-12-24T13:57:53;12.20;99.90
1778;DHT22;886;50.082;8.222;2022-12-24T14:00:30;12.20;99.90
1778;DHT22;886;50.082;8.222;2022-12-24T14:03:02;12.30;99.90
1778;DHT22;886;50.082;8.222;2022-12-24T14:05:35;12.30;99.90
1778;DHT22;886;50.082;8.222;2022-12-24T14:08:08;12.30;99.90
1778;DHT22;886;50.082;8.222;2022-12-24T14:10:39;12.30;99.90
1778;DHT22;886;50.082;8.222;2022-12-24T14:16:27;12.40;99.90
1778;DHT22;886;50.082;8.222;2022-12-24T14:19:00;12.40;99.90
1778;DHT22;886;50.082;8.222;2022-12-24T14:21:33;12.40;99.90
1778;DHT22;886;50.082;8.222;2022-12-24T14:24:09;12.40;99.90
1778;DHT22;886;50.082;8.222;2022-12-24T14:26:44;12.30;99.90
1778;DHT22;886;50.082;8.222;2022-12-24T14:29:19;12.40;99.90
1778;DHT22;886;50.082;8.222;2022-12-24T14:31:51;12.40;99.90
1778;DHT22;886;50.082;8.222;2022-12-24T14:34:19;12.30;99.90
1778;DHT22;886;50.082;8.222;2022-12-24T14:36:48;12.30;99.90
1778;DHT22;886;50.082;8.222;2022-12-24T14:39:23;12.40;99.90
1778;DHT22;886;50.082;8.222;2022-12-24T14:42:03;12.30;99.90
1778;DHT22;886;50.082;8.222;2022-12-24T14:45:01;12.30;99.90
1778;DHT22;886;50.082;8.222;2022-12-24T14:47:37;12.30;99.90
1778;DHT22;886;50.082;8.222;2022-12-24T14:53:37;12.10;99.90
1778;DHT22;886;50.082;8.222;2022-12-24T14:56:17;12.10;99.90
1778;DHT22;886;50.082;8.222;2022-12-24T14:58:47;12.10;99.90
1778;DHT22;886;50.082;8.222;2022-12-24T15:01:20;12.10;99.90
1778;DHT22;886;50.082;8.222;2022-12-24T15:04:00;12.00;99.90
1778;DHT22;886;50.082;8.222;2022-12-24T15:06:30;12.00;99.90
1778;DHT22;886;50.082;8.222;2022-12-24T15:08:59;12.00;99.90
1778;DHT22;886;50.082;8.222;2022-12-24T15:11:27;12.00;99.90
1778;DHT22;886;50.082;8.222;2022-12-24T15:13:58;12.00;99.90
1778;DHT22;886;50.082;8.222;2022-12-24T15:16:28;12.00;99.90
1778;DHT22;886;50.082;8.222;2022-12-24T15:18:59;11.90;99.90
1778;DHT22;886;50.082;8.222;2022-12-24T15:21:32;11.90;99.90
1778;DHT22;886;50.082;8.222;2022-12-24T15:24:03;11.90;99.90
1778;DHT22;886;50.082;8.222;2022-12-24T15:26:35;11.90;99.90
1778;DHT22;886;50.082;8.222;2022-12-24T15:29:20;11.90;99.90
1778;DHT22;886;50.082;8.222;2022-12-24T15:31:53;11.80;99.90
1778;DHT22;886;50.082;8.222;2022-12-24T15:34:26;11.80;99.90
1778;DHT22;886;50.082;8.222;2022-12-24T15:37:04;11.80;99.90
1778;DHT22;886;50.082;8.222;2022-12-24T15:39:33;11.80;99.90
1778;DHT22;886;50.082;8.222;2022-12-24T15:42:01;11.80;99.90
1778;DHT22;886;50.082;8.222;2022-12-24T15:44:56;11.80;99.90
1778;DHT22;886;50.082;8.222;2022-12-24T15:47:27;11.80;99.90
1778;DHT22;886;50.082;8.222;2022-12-24T15:49:56;11.80;99.90
1778;DHT22;886;50.082;8.222;2022-12-24T15:52:24;11.80;99.90
1778;DHT22;886;50.082;8.222;2022-12-24T15:54:52;11.80;99.90
1778;DHT22;886;50.082;8.222;2022-12-24T15:57:29;11.80;99.90
1778;DHT22;886;50.082;8.222;2022-12-24T15:59:59;11.80;99.90
1778;DHT22;886;50.082;8.222;2022-12-24T16:02:37;11.80;99.90
1778;DHT22;886;50.082;8.222;2022-12-24T16:05:31;11.80;99.90
1778;DHT22;886;50.082;8.222;2022-12-24T16:08:01;11.80;99.90
1778;DHT22;886;50.082;8.222;2022-12-24T16:10:40;11.80;99.90
1778;DHT22;886;50.082;8.222;2022-12-24T16:13:15;11.80;99.90
1778;DHT22;886;50.082;8.222;2022-12-24T16:15:47;11.70;99.90
1778;DHT22;886;50.082;8.222;2022-12-24T16:18:24;11.70;99.90
1778;DHT22;886;50.082;8.222;2022-12-24T16:20:54;11.70;99.90
1778;DHT22;886;50.082;8.222;2022-12-24T16:23:24;11.70;99.90
1778;DHT22;886;50.082;8.222;2022-12-24T16:25:52;11.70;99.90
1778;DHT22;886;50.082;8.222;2022-12-24T16:28:21;11.60;99.90
1778;DHT22;886;50.082;8.222;2022-12-24T16:30:49;11.60;99.90
1778;DHT22;886;50.082;8.222;2022-12-24T16:33:18;11.60;99.90
1778;DHT22;886;50.082;8.222;2022-12-24T16:35:46;11.50;99.90
1778;DHT22;886;50.082;8.222;2022-12-24T16:38:14;11.50;99.90
1778;DHT22;886;50.082;8.222;2022-12-24T16:40:42;11.60;99.90
1778;DHT22;886;50.082;8.222;2022-12-24T16:43:09;11.60;99.90
1778;DHT22;886;50.082;8.222;2022-12-24T16:46:03;11.60;99.90
1778;DHT22;886;50.082;8.222;2022-12-24T16:48:35;11.60;99.90
1778;DHT22;886;50.082;8.222;2022-12-24T16:51:17;11.50;99.90
1778;DHT22;886;50.082;8.222;2022-12-24T16:53:56;11.50;99.90
1778;DHT22;886;50.082;8.222;2022-12-24T16:56:25;11.50;99.90
1778;DHT22;886;50.082;8.222;2022-12-24T16:58:52;11.40;99.90
1778;DHT22;886;50.082;8.222;2022-12-24T17:01:26;11.50;99.90
1778;DHT22;886;50.082;8.222;2022-12-24T17:03:59;11.40;99.90
1778;DHT22;886;50.082;8.222;2022-12-24T17:06:33;11.40;99.90
1778;DHT22;886;50.082;8.222;2022-12-24T17:09:04;11.40;99.90
1778;DHT22;886;50.082;8.222;2022-12-24T17:11:34;11.40;99.90
1778;DHT22;886;50.082;8.222;2022-12-24T17:14:02;11.40;99.90
1778;DHT22;886;50.082;8.222;2022-12-24T17:16:38;11.20;99.90
1778;DHT22;886;50.082;8.222;2022-12-24T17:19:06;11.00;99.90
1778;DHT22;886;50.082;8.222;2022-12-24T17:21:37;10.90;99.90
1778;DHT22;886;50.082;8.222;2022-12-24T17:24:07;10.90;99.90
1778;DHT22;886;50.082;8.222;2022-12-24T17:26:35;10.80;99.90